createdAt,value
2018-03-01T01:42:28.647Z,-8.91
2018-03-01T01:42:29.217Z,-8.92
2018-03-01T01:42:29.826Z,-8.86
2018-03-01T01:42:30.416Z,-8.84
2018-03-01T01:42:31.021Z,-8.91
2018-03-01T01:42:31.629Z,-8.91
2018-03-01T01:42:32.221Z,-8.81
2018-03-01T01:42:32.814Z,-8.91
2018-03-01T01:43:26.275Z,-8.86
2018-03-01T01:43:26.872Z,-8.88
2018-03-01T01:43:27.471Z,-8.81
2018-03-01T01:43:28.076Z,-8.83
2018-03-01T01:43:28.674Z,-8.83
2018-03-01T01:43:29.270Z,-8.88
2018-03-01T01:43:29.871Z,-8.80
2018-03-01T01:43:30.477Z,-8.81
2018-03-01T01:44:25.009Z,-8.88
2018-03-01T01:44:25.554Z,-8.83
2018-03-01T01:44:26.154Z,-8.76
2018-03-01T01:44:26.746Z,-8.81
2018-03-01T01:44:27.357Z,-8.81
2018-03-01T01:44:27.942Z,-8.81
2018-03-01T01:44:28.547Z,-8.83
2018-03-01T01:44:29.144Z,-8.78
2018-03-01T01:45:23.626Z,-8.84
2018-03-01T01:45:24.226Z,-8.86
2018-03-01T01:45:24.825Z,-8.84
2018-03-01T01:45:25.420Z,-8.81
2018-03-01T01:45:26.045Z,-8.84
2018-03-01T01:45:26.618Z,-8.84
2018-03-01T01:45:27.222Z,-8.84
2018-03-01T01:45:27.823Z,-8.83
2018-03-01T01:46:21.324Z,-8.81
2018-03-01T01:46:21.878Z,-8.80
2018-03-01T01:46:22.477Z,-8.78
2018-03-01T01:46:23.076Z,-8.78
2018-03-01T01:46:23.674Z,-8.80
2018-03-01T01:46:24.283Z,-8.81
2018-03-01T01:46:24.875Z,-8.80
2018-03-01T01:46:25.473Z,-8.81
2018-03-01T01:47:19.016Z,-8.74
2018-03-01T01:47:19.538Z,-8.76
2018-03-01T01:47:20.127Z,-8.76
2018-03-01T01:47:20.724Z,-8.76
2018-03-01T01:47:21.328Z,-8.74
2018-03-01T01:47:21.934Z,-8.73
2018-03-01T01:47:22.526Z,-8.80
2018-03-01T01:47:23.126Z,-8.78
2018-03-01T01:48:16.582Z,-8.77
2018-03-01T01:48:17.182Z,-8.80
2018-03-01T01:48:17.782Z,-8.76
2018-03-01T01:48:18.376Z,-8.77
2018-03-01T01:48:18.979Z,-8.74
2018-03-01T01:48:19.575Z,-8.77
2018-03-01T01:48:20.233Z,-8.78
2018-03-01T01:48:20.820Z,-8.78
2018-03-01T01:49:14.238Z,-8.77
2018-03-01T01:49:14.844Z,-8.76
2018-03-01T01:49:15.431Z,-8.78
2018-03-01T01:49:16.032Z,-8.76
2018-03-01T01:49:16.631Z,-8.77
2018-03-01T01:49:17.240Z,-8.81
2018-03-01T01:49:17.829Z,-8.80
2018-03-01T01:49:18.434Z,-8.76
2018-03-01T01:50:11.887Z,-8.77
2018-03-01T01:50:12.484Z,-8.77
2018-03-01T01:50:13.085Z,-8.76
2018-03-01T01:50:13.685Z,-8.77
2018-03-01T01:50:14.285Z,-8.77
2018-03-01T01:50:14.890Z,-8.78
2018-03-01T01:50:15.495Z,-8.74
2018-03-01T01:50:16.078Z,-8.77
2018-03-01T01:51:10.564Z,-8.78
2018-03-01T01:51:11.160Z,-8.77
2018-03-01T01:51:11.758Z,-8.81
2018-03-01T01:51:12.369Z,-8.81
2018-03-01T01:51:12.956Z,-8.78
2018-03-01T01:51:13.563Z,-8.81
2018-03-01T01:51:14.156Z,-8.74
2018-03-01T01:51:14.757Z,-8.78
2018-03-01T01:52:09.270Z,-8.76
2018-03-01T01:52:09.835Z,-8.78
2018-03-01T01:52:10.437Z,-8.78
2018-03-01T01:52:11.040Z,-8.78
2018-03-01T01:52:11.638Z,-8.80
2018-03-01T01:52:12.231Z,-8.80
2018-03-01T01:52:12.835Z,-8.78
2018-03-01T01:52:13.433Z,-8.80
2018-03-01T01:53:07.974Z,-8.77
2018-03-01T01:53:08.512Z,-8.77
2018-03-01T01:53:09.113Z,-8.78
2018-03-01T01:53:09.712Z,-8.78
2018-03-01T01:53:10.312Z,-8.78
2018-03-01T01:53:10.909Z,-8.80
2018-03-01T01:53:11.509Z,-8.77
2018-03-01T01:53:12.107Z,-8.80
2018-03-01T01:54:05.573Z,-8.78
2018-03-01T01:54:06.167Z,-8.84
2018-03-01T01:54:06.761Z,-8.77
2018-03-01T01:54:07.364Z,-8.74
2018-03-01T01:54:07.969Z,-8.78
2018-03-01T01:54:08.559Z,-8.78
2018-03-01T01:54:09.167Z,-8.80
2018-03-01T01:54:09.763Z,-8.78
2018-03-01T01:55:03.305Z,-8.73
2018-03-01T01:55:03.816Z,-8.76
2018-03-01T01:55:04.423Z,-8.77
2018-03-01T01:55:05.012Z,-8.73
2018-03-01T01:55:05.616Z,-8.76
2018-03-01T01:55:06.216Z,-8.80
2018-03-01T01:55:06.817Z,-8.76
2018-03-01T01:55:07.409Z,-8.80
2018-03-01T01:56:00.875Z,-8.70
2018-03-01T01:56:01.467Z,-8.65
2018-03-01T01:56:02.067Z,-8.68
2018-03-01T01:56:02.666Z,-8.66
2018-03-01T01:56:03.273Z,-8.71
2018-03-01T01:56:03.864Z,-8.77
2018-03-01T01:56:04.461Z,-8.81
2018-03-01T01:56:05.067Z,-8.80
2018-03-01T01:56:59.584Z,-8.66
2018-03-01T01:57:00.141Z,-8.65
2018-03-01T01:57:00.745Z,-8.73
2018-03-01T01:57:01.342Z,-8.74
2018-03-01T01:57:01.944Z,-8.71
2018-03-01T01:57:02.544Z,-8.73
2018-03-01T01:57:03.146Z,-8.74
2018-03-01T01:57:03.742Z,-8.80
2018-03-01T01:57:57.202Z,-8.71
2018-03-01T01:57:57.799Z,-8.76
2018-03-01T01:57:58.396Z,-8.74
2018-03-01T01:57:58.997Z,-8.74
2018-03-01T01:57:59.598Z,-8.70
2018-03-01T01:58:00.195Z,-8.65
2018-03-01T01:58:00.795Z,-8.66
2018-03-01T01:58:01.391Z,-8.73
2018-03-01T01:58:54.850Z,-8.77
2018-03-01T01:58:55.448Z,-8.68
2018-03-01T01:58:56.056Z,-8.65
2018-03-01T01:58:56.649Z,-8.74
2018-03-01T01:58:57.247Z,-8.73
2018-03-01T01:58:57.849Z,-8.66
2018-03-01T01:58:58.449Z,-8.63
2018-03-01T01:58:59.046Z,-8.76
2018-03-01T01:59:53.525Z,-8.71
2018-03-01T01:59:54.121Z,-8.60
2018-03-01T01:59:54.727Z,-8.60
2018-03-01T01:59:55.324Z,-8.58
2018-03-01T01:59:55.922Z,-8.74
2018-03-01T01:59:56.522Z,-8.68
2018-03-01T01:59:57.121Z,-8.71
2018-03-01T01:59:57.721Z,-8.60
2018-03-01T02:00:52.205Z,-8.66
2018-03-01T02:00:52.798Z,-8.63
2018-03-01T02:00:53.400Z,-8.65
2018-03-01T02:00:54.001Z,-8.66
2018-03-01T02:00:54.600Z,-8.66
2018-03-01T02:00:55.208Z,-8.65
2018-03-01T02:00:55.795Z,-8.60
2018-03-01T02:00:56.393Z,-8.63
2018-03-01T02:01:49.855Z,-8.60
2018-03-01T02:01:50.457Z,-8.60
2018-03-01T02:01:51.046Z,-8.62
2018-03-01T02:01:51.649Z,-8.60
2018-03-01T02:01:52.249Z,-8.60
2018-03-01T02:01:52.857Z,-8.58
2018-03-01T02:01:53.448Z,-8.56
2018-03-01T02:01:54.052Z,-8.62
2018-03-01T02:02:47.542Z,-8.52
2018-03-01T02:02:48.100Z,-8.58
2018-03-01T02:02:48.701Z,-8.55
2018-03-01T02:02:49.301Z,-8.53
2018-03-01T02:02:49.897Z,-8.52
2018-03-01T02:02:50.500Z,-8.55
2018-03-01T02:02:51.099Z,-8.60
2018-03-01T02:02:51.695Z,-8.60
2018-03-01T02:03:46.188Z,-8.53
2018-03-01T02:03:46.773Z,-8.48
2018-03-01T02:03:47.384Z,-8.56
2018-03-01T02:03:47.981Z,-8.52
2018-03-01T02:03:48.576Z,-8.58
2018-03-01T02:03:49.184Z,-8.58
2018-03-01T02:03:49.779Z,-8.52
2018-03-01T02:03:50.373Z,-8.55
2018-03-01T02:04:44.852Z,-8.42
2018-03-01T02:04:45.457Z,-8.52
2018-03-01T02:04:46.055Z,-8.48
2018-03-01T02:04:46.652Z,-8.50
2018-03-01T02:04:47.250Z,-8.52
2018-03-01T02:04:47.854Z,-8.45
2018-03-01T02:04:48.458Z,-8.50
2018-03-01T02:04:49.049Z,-8.48
2018-03-01T02:05:43.529Z,-8.50
2018-03-01T02:05:44.131Z,-8.47
2018-03-01T02:05:44.725Z,-8.48
2018-03-01T02:05:45.326Z,-8.47
2018-03-01T02:05:45.928Z,-8.45
2018-03-01T02:05:46.535Z,-8.44
2018-03-01T02:05:47.129Z,-8.52
2018-03-01T02:05:47.726Z,-8.44
2018-03-01T02:06:41.187Z,-8.52
2018-03-01T02:06:41.776Z,-8.45
2018-03-01T02:06:42.377Z,-8.37
2018-03-01T02:06:42.978Z,-8.55
2018-03-01T02:06:43.575Z,-8.41
2018-03-01T02:06:44.177Z,-8.47
2018-03-01T02:06:44.787Z,-8.42
2018-03-01T02:06:45.374Z,-8.48
2018-03-01T02:07:38.832Z,-8.52
2018-03-01T02:07:39.437Z,-8.52
2018-03-01T02:07:40.030Z,-8.52
2018-03-01T02:07:40.630Z,-8.45
2018-03-01T02:07:41.229Z,-8.52
2018-03-01T02:07:41.837Z,-8.39
2018-03-01T02:07:42.427Z,-8.42
2018-03-01T02:07:43.029Z,-8.55
2018-03-01T02:08:37.538Z,-8.47
2018-03-01T02:08:38.114Z,-8.41
2018-03-01T02:08:38.713Z,-8.39
2018-03-01T02:08:39.305Z,-8.53
2018-03-01T02:08:39.906Z,-8.45
2018-03-01T02:08:40.508Z,-8.38
2018-03-01T02:08:41.110Z,-8.52
2018-03-01T02:08:41.701Z,-8.42
2018-03-01T02:09:36.191Z,-8.38
2018-03-01T02:09:36.782Z,-8.38
2018-03-01T02:09:37.385Z,-8.42
2018-03-01T02:09:37.990Z,-8.37
2018-03-01T02:09:38.585Z,-8.42
2018-03-01T02:09:39.183Z,-8.38
2018-03-01T02:09:39.783Z,-8.38
2018-03-01T02:09:40.383Z,-8.34
2018-03-01T02:10:33.840Z,-8.38
2018-03-01T02:10:34.432Z,-8.41
2018-03-01T02:10:35.040Z,-8.42
2018-03-01T02:10:35.636Z,-8.41
2018-03-01T02:10:36.242Z,-8.44
2018-03-01T02:10:36.833Z,-8.34
2018-03-01T02:10:37.439Z,-8.47
2018-03-01T02:10:38.031Z,-8.47
2018-03-01T02:11:32.514Z,-8.44
2018-03-01T02:11:33.113Z,-8.37
2018-03-01T02:11:33.709Z,-8.44
2018-03-01T02:11:34.313Z,-8.38
2018-03-01T02:11:34.909Z,-8.39
2018-03-01T02:11:35.513Z,-8.41
2018-03-01T02:11:36.110Z,-8.37
2018-03-01T02:11:36.714Z,-8.37
2018-03-01T02:12:30.171Z,-8.44
2018-03-01T02:12:30.767Z,-8.41
2018-03-01T02:12:31.360Z,-8.31
2018-03-01T02:12:31.967Z,-8.41
2018-03-01T02:12:32.558Z,-8.42
2018-03-01T02:12:33.161Z,-8.44
2018-03-01T02:12:33.763Z,-8.42
2018-03-01T02:12:34.368Z,-8.39
2018-03-01T02:13:28.876Z,-8.41
2018-03-01T02:13:29.435Z,-8.39
2018-03-01T02:13:30.037Z,-8.38
2018-03-01T02:13:30.642Z,-8.42
2018-03-01T02:13:31.244Z,-8.38
2018-03-01T02:13:31.834Z,-8.52
2018-03-01T02:13:32.438Z,-8.41
2018-03-01T02:13:33.032Z,-8.38
2018-03-01T02:14:27.516Z,-8.38
2018-03-01T02:14:28.113Z,-8.44
2018-03-01T02:14:28.710Z,-8.38
2018-03-01T02:14:29.313Z,-8.34
2018-03-01T02:14:29.913Z,-8.39
2018-03-01T02:14:30.521Z,-8.37
2018-03-01T02:14:31.108Z,-8.39
2018-03-01T02:14:31.711Z,-8.39
2018-03-01T02:15:26.253Z,-8.39
2018-03-01T02:15:26.785Z,-8.38
2018-03-01T02:15:27.387Z,-8.41
2018-03-01T02:15:27.993Z,-8.42
2018-03-01T02:15:28.595Z,-8.42
2018-03-01T02:15:29.185Z,-8.42
2018-03-01T02:15:29.786Z,-8.41
2018-03-01T02:15:30.393Z,-8.38
2018-03-01T02:16:23.849Z,-8.41
2018-03-01T02:16:24.442Z,-8.37
2018-03-01T02:16:25.042Z,-8.39
2018-03-01T02:16:25.641Z,-8.37
2018-03-01T02:16:26.247Z,-8.38
2018-03-01T02:16:26.846Z,-8.42
2018-03-01T02:16:27.442Z,-8.39
2018-03-01T02:16:28.041Z,-8.39
2018-03-01T02:17:22.579Z,-8.47
2018-03-01T02:17:23.122Z,-8.45
2018-03-01T02:17:23.716Z,-8.44
2018-03-01T02:17:24.320Z,-8.38
2018-03-01T02:17:24.915Z,-8.41
2018-03-01T02:17:25.516Z,-8.37
2018-03-01T02:17:26.111Z,-8.38
2018-03-01T02:17:26.717Z,-8.39
2018-03-01T02:18:32.904Z,-8.44
2018-03-01T02:18:33.463Z,-8.39
2018-03-01T02:18:34.069Z,-8.41
2018-03-01T02:18:34.674Z,-8.47
2018-03-01T02:18:35.265Z,-8.44
2018-03-01T02:18:35.865Z,-8.41
2018-03-01T02:18:36.464Z,-8.41
2018-03-01T02:18:37.063Z,-8.42
2018-03-01T02:19:32.056Z,-8.42
2018-03-01T02:19:32.654Z,-8.38
2018-03-01T02:19:33.259Z,-8.44
2018-03-01T02:19:33.855Z,-8.39
2018-03-01T02:19:34.450Z,-8.39
2018-03-01T02:19:35.056Z,-8.41
2018-03-01T02:20:32.981Z,-8.35
2018-03-01T02:20:33.582Z,-8.44
2018-03-01T02:20:34.182Z,-8.50
2018-03-01T02:21:28.690Z,-8.35
2018-03-01T02:21:29.286Z,-8.44
2018-03-01T02:21:29.890Z,-8.35
2018-03-01T02:21:30.490Z,-8.29
2018-03-01T02:21:31.084Z,-8.38
2018-03-01T02:21:31.683Z,-8.42
2018-03-01T02:21:32.283Z,-8.38
2018-03-01T02:21:32.890Z,-8.35
2018-03-01T02:22:26.853Z,-8.41
2018-03-01T02:22:27.457Z,-8.45
2018-03-01T02:22:28.058Z,-8.47
2018-03-01T02:22:28.651Z,-8.31
2018-03-01T02:22:29.251Z,-8.42
2018-03-01T02:22:29.886Z,-8.34
2018-03-01T02:22:30.456Z,-8.31
2018-03-01T02:23:29.936Z,-8.38
2018-03-01T02:23:30.528Z,-8.41
2018-03-01T02:23:31.131Z,-8.41
2018-03-01T02:23:31.733Z,-8.45
2018-03-01T02:23:32.329Z,-8.41
2018-03-01T02:23:32.930Z,-8.47
2018-03-01T02:23:33.530Z,-8.42
2018-03-01T02:23:34.128Z,-8.34
2018-03-01T02:23:34.730Z,-8.35
2018-03-01T02:23:35.328Z,-8.32
2018-03-01T02:23:35.931Z,-8.41
2018-03-01T02:23:36.528Z,-8.42
2018-03-01T02:23:37.126Z,-8.39
2018-03-01T02:23:37.727Z,-8.37
2018-03-01T02:23:38.324Z,-8.38
2018-03-01T02:23:38.929Z,-8.35
2018-03-01T02:24:53.492Z,-8.35
2018-03-01T02:24:54.003Z,-8.35
2018-03-01T02:24:54.605Z,-8.47
2018-03-01T02:24:55.210Z,-8.41
2018-03-01T02:24:55.803Z,-8.41
2018-03-01T02:24:56.401Z,-8.39
2018-03-01T02:24:57.000Z,-8.41
2018-03-01T02:24:57.600Z,-8.27
2018-03-01T02:25:52.062Z,-8.34
2018-03-01T02:25:52.664Z,-8.47
2018-03-01T02:25:53.266Z,-8.29
2018-03-01T02:25:53.870Z,-8.34
2018-03-01T02:25:54.462Z,-8.32
2018-03-01T02:25:55.058Z,-8.41
2018-03-01T02:25:55.665Z,-8.41
2018-03-01T02:25:56.265Z,-8.38
2018-03-01T02:26:50.742Z,-8.35
2018-03-01T02:26:51.338Z,-8.35
2018-03-01T02:26:51.937Z,-8.38
2018-03-01T02:26:52.534Z,-8.44
2018-03-01T02:26:53.144Z,-8.41
2018-03-01T02:26:53.742Z,-8.37
2018-03-01T02:26:54.337Z,-8.41
2018-03-01T02:26:54.941Z,-8.34
2018-03-01T02:27:48.479Z,-8.35
2018-03-01T02:27:48.991Z,-8.35
2018-03-01T02:27:49.596Z,-8.39
2018-03-01T02:27:50.190Z,-8.44
2018-03-01T02:27:50.792Z,-8.31
2018-03-01T02:27:51.385Z,-8.32
2018-03-01T02:27:52.002Z,-8.32
2018-03-01T02:27:52.586Z,-8.34
2018-03-01T02:28:47.106Z,-8.38
2018-03-01T02:28:47.666Z,-8.32
2018-03-01T02:28:48.267Z,-8.41
2018-03-01T02:28:48.863Z,-8.41
2018-03-01T02:28:49.465Z,-8.41
2018-03-01T02:28:50.066Z,-8.38
2018-03-01T02:28:50.662Z,-8.35
2018-03-01T02:28:51.264Z,-8.35
2018-03-01T02:29:44.720Z,-8.32
2018-03-01T02:29:45.318Z,-8.32
2018-03-01T02:29:45.917Z,-8.32
2018-03-01T02:29:46.515Z,-8.34
2018-03-01T02:29:47.117Z,-8.41
2018-03-01T02:29:47.716Z,-8.37
2018-03-01T02:29:48.315Z,-8.34
2018-03-01T02:29:48.917Z,-8.38
2018-03-01T02:30:42.378Z,-8.31
2018-03-01T02:30:42.978Z,-8.31
2018-03-01T02:30:43.574Z,-8.31
2018-03-01T02:30:44.165Z,-8.29
2018-03-01T02:30:44.765Z,-8.26
2018-03-01T02:30:45.368Z,-8.27
2018-03-01T02:30:45.977Z,-8.29
2018-03-01T02:30:46.567Z,-8.29
2018-03-01T02:31:41.037Z,-8.35
2018-03-01T02:31:41.633Z,-8.35
2018-03-01T02:31:42.233Z,-8.32
2018-03-01T02:31:42.833Z,-8.24
2018-03-01T02:31:43.431Z,-8.34
2018-03-01T02:31:44.038Z,-8.34
2018-03-01T02:31:44.635Z,-8.32
2018-03-01T02:31:45.231Z,-8.34
2018-03-01T02:32:39.200Z,-8.31
2018-03-01T02:32:39.800Z,-8.21
2018-03-01T02:32:40.399Z,-8.31
2018-03-01T02:32:40.996Z,-8.32
2018-03-01T02:32:41.597Z,-8.27
2018-03-01T02:32:42.200Z,-8.32
2018-03-01T02:32:42.801Z,-8.24
2018-03-01T02:33:36.239Z,-8.32
2018-03-01T02:33:36.835Z,-8.31
2018-03-01T02:33:37.436Z,-8.34
2018-03-01T02:33:38.039Z,-8.31
2018-03-01T02:33:38.635Z,-8.32
2018-03-01T02:33:39.234Z,-8.31
2018-03-01T02:33:39.834Z,-8.34
2018-03-01T02:33:40.435Z,-8.24
2018-03-01T02:34:34.979Z,-8.29
2018-03-01T02:34:35.511Z,-8.31
2018-03-01T02:34:36.110Z,-8.26
2018-03-01T02:34:36.710Z,-8.32
2018-03-01T02:34:37.308Z,-8.35
2018-03-01T02:34:37.909Z,-8.27
2018-03-01T02:34:38.510Z,-8.32
2018-03-01T02:34:39.110Z,-8.29
2018-03-01T02:35:32.567Z,-8.31
2018-03-01T02:35:33.163Z,-8.29
2018-03-01T02:35:33.763Z,-8.31
2018-03-01T02:35:34.361Z,-8.23
2018-03-01T02:35:34.961Z,-8.29
2018-03-01T02:35:35.561Z,-8.27
2018-03-01T02:35:36.162Z,-8.34
2018-03-01T02:35:36.760Z,-8.34
2018-03-01T02:36:30.225Z,-8.23
2018-03-01T02:36:30.813Z,-8.31
2018-03-01T02:36:31.412Z,-8.29
2018-03-01T02:36:32.013Z,-8.27
2018-03-01T02:36:32.613Z,-8.31
2018-03-01T02:36:33.213Z,-8.31
2018-03-01T02:36:33.814Z,-8.24
2018-03-01T02:36:34.413Z,-8.29
2018-03-01T02:37:28.892Z,-8.32
2018-03-01T02:37:29.488Z,-8.24
2018-03-01T02:37:30.091Z,-8.32
2018-03-01T02:37:30.691Z,-8.29
2018-03-01T02:37:31.291Z,-8.29
2018-03-01T02:37:31.886Z,-8.29
2018-03-01T02:37:32.485Z,-8.27
2018-03-01T02:37:33.085Z,-8.34
2018-03-01T02:38:27.568Z,-8.23
2018-03-01T02:38:28.164Z,-8.32
2018-03-01T02:38:28.763Z,-8.31
2018-03-01T02:38:29.363Z,-8.31
2018-03-01T02:38:29.965Z,-8.32
2018-03-01T02:38:30.564Z,-8.32
2018-03-01T02:38:31.161Z,-8.24
2018-03-01T02:38:31.761Z,-8.26
2018-03-01T02:56:04.331Z,-8.60
2018-03-01T02:56:04.849Z,-8.50
2018-03-01T02:56:05.446Z,-8.53
2018-03-01T02:56:06.045Z,-8.53
2018-03-01T02:56:06.646Z,-8.56
2018-03-01T02:56:07.245Z,-8.53
2018-03-01T02:56:07.845Z,-8.59
2018-03-01T02:57:01.291Z,-8.60
2018-03-01T02:57:01.886Z,-8.62
2018-03-01T02:57:02.485Z,-8.59
2018-03-01T02:57:03.086Z,-8.59
2018-03-01T02:57:03.684Z,-8.60
2018-03-01T02:57:04.285Z,-8.60
2018-03-01T02:57:04.887Z,-8.58
2018-03-01T02:57:05.485Z,-8.58
2018-03-01T02:57:58.974Z,-8.60
2018-03-01T02:57:59.538Z,-8.59
2018-03-01T02:58:00.139Z,-8.59
2018-03-01T02:58:00.737Z,-8.60
2018-03-01T02:58:01.338Z,-8.55
2018-03-01T02:58:01.938Z,-8.59
2018-03-01T02:58:02.537Z,-8.60
2018-03-01T02:58:03.137Z,-8.59
2018-03-01T02:58:56.593Z,-8.58
2018-03-01T02:58:57.191Z,-8.60
2018-03-01T02:58:57.790Z,-8.65
2018-03-01T02:58:58.389Z,-8.62
2018-03-01T02:58:59.005Z,-8.59
2018-03-01T02:58:59.591Z,-8.60
2018-03-01T02:59:00.216Z,-8.59
2018-03-01T02:59:00.787Z,-8.60
2018-03-01T02:59:54.245Z,-8.66
2018-03-01T02:59:54.842Z,-8.55
2018-03-01T02:59:55.442Z,-8.60
2018-03-01T02:59:56.042Z,-8.59
2018-03-01T02:59:56.641Z,-8.60
2018-03-01T02:59:57.244Z,-8.58
2018-03-01T02:59:57.839Z,-8.59
2018-03-01T02:59:58.442Z,-8.62
2018-03-01T03:00:51.898Z,-8.60
2018-03-01T03:00:52.493Z,-8.60
2018-03-01T03:00:53.094Z,-8.56
2018-03-01T03:00:53.694Z,-8.62
2018-03-01T03:00:54.293Z,-8.60
2018-03-01T03:00:54.893Z,-8.58
2018-03-01T03:00:55.492Z,-8.55
2018-03-01T03:00:56.090Z,-8.56
2018-03-01T03:01:49.549Z,-8.59
2018-03-01T03:01:50.150Z,-8.59
2018-03-01T03:01:50.746Z,-8.60
2018-03-01T03:01:51.345Z,-8.56
2018-03-01T03:01:51.945Z,-8.59
2018-03-01T03:01:52.545Z,-8.59
2018-03-01T03:01:53.144Z,-8.55
2018-03-01T03:01:53.745Z,-8.58
2018-03-01T03:02:48.227Z,-8.56
2018-03-01T03:02:48.821Z,-8.56
2018-03-01T03:02:49.421Z,-8.59
2018-03-01T03:02:50.025Z,-8.60
2018-03-01T03:02:50.620Z,-8.55
2018-03-01T03:02:51.220Z,-8.55
2018-03-01T03:02:51.820Z,-8.55
2018-03-01T03:02:52.420Z,-8.59
2018-03-01T03:03:45.904Z,-8.47
2018-03-01T03:03:46.475Z,-8.53
2018-03-01T03:03:47.074Z,-8.56
2018-03-01T03:03:47.674Z,-8.56
2018-03-01T03:03:48.274Z,-8.56
2018-03-01T03:03:48.872Z,-8.56
2018-03-01T03:03:49.472Z,-8.59
2018-03-01T03:03:50.073Z,-8.55
2018-03-01T03:04:43.530Z,-8.48
2018-03-01T03:04:44.126Z,-8.52
2018-03-01T03:04:44.726Z,-8.47
2018-03-01T03:04:45.325Z,-8.50
2018-03-01T03:04:45.924Z,-8.48
2018-03-01T03:04:46.524Z,-8.53
2018-03-01T03:04:47.124Z,-8.48
2018-03-01T03:04:47.723Z,-8.47
2018-03-01T03:05:41.182Z,-8.50
2018-03-01T03:05:41.778Z,-8.50
2018-03-01T03:05:42.377Z,-8.48
2018-03-01T03:05:42.978Z,-8.58
2018-03-01T03:05:43.577Z,-8.50
2018-03-01T03:05:44.176Z,-8.48
2018-03-01T03:05:44.779Z,-8.52
2018-03-01T03:05:45.377Z,-8.56
2018-03-01T03:06:39.917Z,-8.55
2018-03-01T03:06:40.453Z,-8.56
2018-03-01T03:06:41.052Z,-8.56
2018-03-01T03:06:41.652Z,-8.52
2018-03-01T03:06:42.252Z,-8.59
2018-03-01T03:06:42.851Z,-8.55
2018-03-01T03:06:43.452Z,-8.56
2018-03-01T03:06:44.050Z,-8.55
2018-03-01T03:07:38.539Z,-8.50
2018-03-01T03:07:39.128Z,-8.50
2018-03-01T03:07:39.735Z,-8.52
2018-03-01T03:07:40.327Z,-8.56
2018-03-01T03:07:40.928Z,-8.56
2018-03-01T03:07:41.535Z,-8.55
2018-03-01T03:07:42.130Z,-8.59
2018-03-01T03:07:42.725Z,-8.59
2018-03-01T03:08:36.221Z,-8.50
2018-03-01T03:08:36.781Z,-8.59
2018-03-01T03:08:37.381Z,-8.50
2018-03-01T03:08:37.983Z,-8.56
2018-03-01T03:08:38.581Z,-8.60
2018-03-01T03:08:39.180Z,-8.52
2018-03-01T03:08:39.781Z,-8.52
2018-03-01T03:08:40.380Z,-8.55
2018-03-01T03:09:33.836Z,-8.48
2018-03-01T03:09:34.433Z,-8.47
2018-03-01T03:09:35.032Z,-8.48
2018-03-01T03:09:35.632Z,-8.52
2018-03-01T03:09:36.233Z,-8.55
2018-03-01T03:09:36.831Z,-8.52
2018-03-01T03:09:37.433Z,-8.53
2018-03-01T03:09:38.038Z,-8.50
2018-03-01T03:10:31.488Z,-8.48
2018-03-01T03:10:32.085Z,-8.42
2018-03-01T03:10:32.688Z,-8.42
2018-03-01T03:10:33.284Z,-8.47
2018-03-01T03:10:33.884Z,-8.48
2018-03-01T03:10:34.484Z,-8.48
2018-03-01T03:10:35.087Z,-8.42
2018-03-01T03:10:35.682Z,-8.47
2018-03-01T03:11:29.139Z,-8.47
2018-03-01T03:11:29.737Z,-8.50
2018-03-01T03:11:30.336Z,-8.44
2018-03-01T03:11:30.936Z,-8.45
2018-03-01T03:11:31.536Z,-8.45
2018-03-01T03:11:32.134Z,-8.53
2018-03-01T03:11:32.741Z,-8.53
2018-03-01T03:11:33.334Z,-8.50
2018-03-01T03:12:26.792Z,-8.47
2018-03-01T03:12:27.388Z,-8.45
2018-03-01T03:12:27.987Z,-8.52
2018-03-01T03:12:28.587Z,-8.50
2018-03-01T03:12:29.187Z,-8.50
2018-03-01T03:12:29.787Z,-8.52
2018-03-01T03:12:30.391Z,-8.48
2018-03-01T03:12:31.034Z,-8.45
2018-03-01T03:13:25.469Z,-8.39
2018-03-01T03:13:26.064Z,-8.52
2018-03-01T03:13:26.662Z,-8.55
2018-03-01T03:13:27.262Z,-8.53
2018-03-01T03:13:27.861Z,-8.44
2018-03-01T03:13:28.462Z,-8.52
2018-03-01T03:13:29.061Z,-8.48
2018-03-01T03:13:29.661Z,-8.50
2018-03-01T03:14:23.153Z,-8.38
2018-03-01T03:14:23.716Z,-8.55
2018-03-01T03:14:24.315Z,-8.47
2018-03-01T03:14:24.915Z,-8.39
2018-03-01T03:14:25.544Z,-8.55
2018-03-01T03:14:26.114Z,-8.48
2018-03-01T03:14:26.717Z,-8.55
2018-03-01T03:14:27.313Z,-8.55
2018-03-01T03:15:21.797Z,-8.50
2018-03-01T03:15:22.391Z,-8.55
2018-03-01T03:15:23.027Z,-8.50
2018-03-01T03:15:23.592Z,-8.53
2018-03-01T03:15:24.190Z,-8.47
2018-03-01T03:15:24.789Z,-8.42
2018-03-01T03:15:25.391Z,-8.48
2018-03-01T03:15:25.989Z,-8.55
2018-03-01T03:16:20.480Z,-8.52
2018-03-01T03:16:21.066Z,-8.39
2018-03-01T03:16:21.667Z,-8.55
2018-03-01T03:16:22.266Z,-8.45
2018-03-01T03:16:22.865Z,-8.47
2018-03-01T03:16:23.464Z,-8.44
2018-03-01T03:16:24.067Z,-8.52
2018-03-01T03:16:24.664Z,-8.52
2018-03-01T03:17:18.122Z,-8.47
2018-03-01T03:17:18.719Z,-8.48
2018-03-01T03:17:19.318Z,-8.39
2018-03-01T03:17:19.918Z,-8.44
2018-03-01T03:17:20.518Z,-8.52
2018-03-01T03:17:21.118Z,-8.45
2018-03-01T03:17:21.721Z,-8.47
2018-03-01T03:17:22.316Z,-8.50
2018-03-01T03:18:16.800Z,-8.37
2018-03-01T03:18:17.393Z,-8.41
2018-03-01T03:18:17.993Z,-8.41
2018-03-01T03:18:18.593Z,-8.39
2018-03-01T03:18:19.192Z,-8.42
2018-03-01T03:18:19.791Z,-8.44
2018-03-01T03:18:20.395Z,-8.41
2018-03-01T03:18:20.995Z,-8.38
2018-03-01T03:19:15.482Z,-8.37
2018-03-01T03:19:16.069Z,-8.32
2018-03-01T03:19:16.669Z,-8.44
2018-03-01T03:19:17.267Z,-8.34
2018-03-01T03:19:17.868Z,-8.44
2018-03-01T03:19:18.467Z,-8.42
2018-03-01T03:19:19.067Z,-8.34
2018-03-01T03:19:19.667Z,-8.41
2018-03-01T03:20:14.174Z,-8.41
2018-03-01T03:20:14.745Z,-8.50
2018-03-01T03:20:15.347Z,-8.48
2018-03-01T03:20:15.944Z,-8.31
2018-03-01T03:20:16.546Z,-8.48
2018-03-01T03:20:17.144Z,-8.29
2018-03-01T03:20:17.747Z,-8.35
2018-03-01T03:20:18.342Z,-8.39
2018-03-01T03:21:12.826Z,-8.37
2018-03-01T03:21:13.421Z,-8.38
2018-03-01T03:21:14.021Z,-8.31
2018-03-01T03:21:14.619Z,-8.41
2018-03-01T03:21:15.219Z,-8.48
2018-03-01T03:21:15.819Z,-8.32
2018-03-01T03:21:16.420Z,-8.45
2018-03-01T03:21:17.017Z,-8.34
2018-03-01T03:22:11.501Z,-8.42
2018-03-01T03:22:12.096Z,-8.41
2018-03-01T03:22:12.696Z,-8.37
2018-03-01T03:22:13.295Z,-8.38
2018-03-01T03:22:13.895Z,-8.34
2018-03-01T03:22:14.496Z,-8.41
2018-03-01T03:22:15.097Z,-8.37
2018-03-01T03:22:15.694Z,-8.35
2018-03-01T03:23:09.151Z,-8.27
2018-03-01T03:23:09.747Z,-8.34
2018-03-01T03:23:10.348Z,-8.35
2018-03-01T03:23:10.948Z,-8.31
2018-03-01T03:23:11.553Z,-8.34
2018-03-01T03:23:12.147Z,-8.31
2018-03-01T03:23:12.749Z,-8.29
2018-03-01T03:23:13.346Z,-8.37
2018-03-01T03:24:06.804Z,-8.29
2018-03-01T03:24:07.401Z,-8.27
2018-03-01T03:24:08.000Z,-8.27
2018-03-01T03:24:08.600Z,-8.35
2018-03-01T03:24:09.200Z,-8.34
2018-03-01T03:24:09.798Z,-8.32
2018-03-01T03:24:10.400Z,-8.32
2018-03-01T03:24:10.998Z,-8.26
2018-03-01T03:25:05.512Z,-8.32
2018-03-01T03:25:06.076Z,-8.27
2018-03-01T03:25:06.674Z,-8.29
2018-03-01T03:25:07.274Z,-8.32
2018-03-01T03:25:07.873Z,-8.29
2018-03-01T03:25:08.475Z,-8.35
2018-03-01T03:25:09.075Z,-8.27
2018-03-01T03:25:09.686Z,-8.31
2018-03-01T03:26:03.130Z,-8.32
2018-03-01T03:26:03.728Z,-8.26
2018-03-01T03:26:04.327Z,-8.29
2018-03-01T03:26:04.927Z,-8.26
2018-03-01T03:26:05.528Z,-8.29
2018-03-01T03:26:06.128Z,-8.31
2018-03-01T03:26:06.732Z,-8.29
2018-03-01T03:26:07.325Z,-8.27
2018-03-01T03:27:00.782Z,-8.21
2018-03-01T03:27:01.379Z,-8.26
2018-03-01T03:27:01.979Z,-8.29
2018-03-01T03:27:02.579Z,-8.26
2018-03-01T03:27:03.196Z,-8.29
2018-03-01T03:27:03.777Z,-8.21
2018-03-01T03:27:04.377Z,-8.19
2018-03-01T03:27:04.981Z,-8.24
2018-03-01T03:27:59.461Z,-8.23
2018-03-01T03:28:00.054Z,-8.23
2018-03-01T03:28:00.653Z,-8.27
2018-03-01T03:28:01.253Z,-8.14
2018-03-01T03:28:01.853Z,-8.20
2018-03-01T03:28:02.452Z,-8.17
2018-03-01T03:28:03.057Z,-8.17
2018-03-01T03:28:03.652Z,-8.24
2018-03-01T03:28:57.111Z,-8.27
2018-03-01T03:28:57.707Z,-8.27
2018-03-01T03:28:58.306Z,-8.17
2018-03-01T03:28:58.906Z,-8.26
2018-03-01T03:28:59.506Z,-8.26
2018-03-01T03:29:00.107Z,-8.16
2018-03-01T03:29:00.707Z,-8.27
2018-03-01T03:29:01.304Z,-8.19
2018-03-01T03:29:54.761Z,-8.05
2018-03-01T03:29:55.358Z,-8.17
2018-03-01T03:29:55.958Z,-8.16
2018-03-01T03:29:56.559Z,-8.17
2018-03-01T03:29:57.158Z,-8.09
2018-03-01T03:29:57.757Z,-8.16
2018-03-01T03:29:58.356Z,-8.13
2018-03-01T03:29:58.956Z,-8.13
2018-03-01T03:30:52.446Z,-8.13
2018-03-01T03:30:53.014Z,-8.09
2018-03-01T03:30:53.612Z,-8.13
2018-03-01T03:30:54.211Z,-8.09
2018-03-01T03:30:54.816Z,-8.16
2018-03-01T03:30:55.410Z,-8.10
2018-03-01T03:30:56.012Z,-8.19
2018-03-01T03:30:56.611Z,-8.08
2018-03-01T03:31:50.064Z,-8.16
2018-03-01T03:31:50.662Z,-8.16
2018-03-01T03:31:51.261Z,-8.09
2018-03-01T03:31:51.861Z,-8.13
2018-03-01T03:31:52.461Z,-8.14
2018-03-01T03:31:53.061Z,-8.06
2018-03-01T03:31:53.662Z,-8.05
2018-03-01T03:31:54.260Z,-8.14
2018-03-01T03:32:47.719Z,-8.05
2018-03-01T03:32:48.317Z,-8.10
2018-03-01T03:32:48.912Z,-8.16
2018-03-01T03:32:49.513Z,-8.09
2018-03-01T03:32:50.112Z,-8.17
2018-03-01T03:32:50.712Z,-8.03
2018-03-01T03:32:51.314Z,-8.17